Terminal Aerodrome Forecast
Issued by NWS

Home | Current Version | Previous Version | Graphics & Text | Print | Product List | Glossary On
Versions: 1 2 3 4 5 6 7 8 9 10 11 12 13 14 15 16 17
000
FTUS42 KMHX 220200 AAB
TAFOAJ
TAF AMD
KOAJ 220251Z 2203/2224 00000KT 5SM BR SCT004 BKN050
      TEMPO 2203/2206 2SM BR OVC004
     FM220600 00000KT 4SM BR SCT004 BKN120
     FM221300 14005KT P6SM VCSH SCT015 BKN030
      AMD LTD TO CLD VIS AND WIND=

USA.gov is the U.S. government's official web portal to all federal, state and local government web resources and services.